AUA3VG LOWW-KEWR
Flight info
| Callsign | AUA3VG |
|---|---|
| Flight time | N/A |
| Altitude | 34000 |
| Route | LUGEM DCT SUBEN/N0463F380 DCT GASKA DCT MASEK DCT TIVUN DCT ABNED L980 LAM L179 UGBET Q60 OKSAW DCT BIBPE DCT OKTAD DCT MEDOG DCT PEMOB DCT BAKUR DCT MALOT/M082F390 NATE RIKAL/N0478F400 N576B ANATI DCT IMORI DCT HANAA FLOSI4 |
| Aircraft | B772/H-SDE2E3FGHIJ5LORVWXY/LB1D1 |
Departure
| Time | N/A |
|---|---|
| Airport | Vienna International Airport (LOWW) |
Arrival
| Time | 2026-04-24 19:28 |
|---|---|
| Airport | Newark Liberty International Airport (KEWR) |
| Time | Latitude | Longitude | Altitude | Speed | Heading |
|---|---|---|---|---|---|
| 2026-04-24 18:54 | 43.08788 | -73.66009 | 39921 ft | 498 kts | 201° |
| 2026-04-24 18:55 | 43.02141 | -73.68782 | 39387 ft | 503 kts | 201° |
| 2026-04-24 18:55 | 42.98805 | -73.70186 | 38974 ft | 497 kts | 202° |
| 2026-04-24 18:55 | 42.95515 | -73.71571 | 38560 ft | 492 kts | 202° |
| 2026-04-24 18:56 | 42.92305 | -73.72924 | 38083 ft | 487 kts | 202° |
| 2026-04-24 18:56 | 42.89082 | -73.74281 | 37647 ft | 481 kts | 202° |
| 2026-04-24 18:56 | 42.85899 | -73.75621 | 37242 ft | 475 kts | 202° |
| 2026-04-24 18:56 | 42.82758 | -73.76942 | 36858 ft | 469 kts | 203° |
| 2026-04-24 18:57 | 42.79656 | -73.78246 | 36473 ft | 464 kts | 203° |
| 2026-04-24 18:57 | 42.76589 | -73.79533 | 36099 ft | 459 kts | 204° |
| 2026-04-24 18:57 | 42.74575 | -73.80377 | 35853 ft | 456 kts | 204° |
| 2026-04-24 18:57 | 42.70599 | -73.82111 | 35334 ft | 449 kts | 205° |
| 2026-04-24 18:58 | 42.67638 | -73.83445 | 34928 ft | 446 kts | 206° |
| 2026-04-24 18:58 | 42.64705 | -73.84777 | 34550 ft | 442 kts | 206° |
| 2026-04-24 18:58 | 42.61800 | -73.86093 | 34169 ft | 438 kts | 206° |
| 2026-04-24 18:58 | 42.59889 | -73.86956 | 33910 ft | 436 kts | 206° |
| 2026-04-24 18:59 | 42.57006 | -73.88253 | 33468 ft | 433 kts | 207° |
| 2026-04-24 18:59 | 42.54161 | -73.89528 | 33071 ft | 430 kts | 207° |
| 2026-04-24 18:59 | 42.51329 | -73.90793 | 32685 ft | 426 kts | 207° |
| 2026-04-24 18:59 | 42.48525 | -73.92044 | 32278 ft | 423 kts | 207° |
| 2026-04-24 19:00 | 42.45733 | -73.93291 | 31943 ft | 422 kts | 208° |
| 2026-04-24 19:00 | 42.42921 | -73.94552 | 31590 ft | 432 kts | 208° |
| 2026-04-24 19:00 | 42.40034 | -73.95850 | 31217 ft | 441 kts | 208° |
| 2026-04-24 19:00 | 42.37108 | -73.97150 | 30803 ft | 440 kts | 208° |
| 2026-04-24 19:01 | 42.34211 | -73.98428 | 30414 ft | 436 kts | 208° |
| 2026-04-24 19:01 | 42.31373 | -73.99680 | 30033 ft | 433 kts | 208° |
| 2026-04-24 19:01 | 42.28520 | -74.00944 | 29526 ft | 430 kts | 208° |
| 2026-04-24 19:01 | 42.25693 | -74.02196 | 29164 ft | 425 kts | 208° |
| 2026-04-24 19:02 | 42.22891 | -74.03436 | 28762 ft | 422 kts | 208° |
| 2026-04-24 19:02 | 42.20110 | -74.04666 | 28348 ft | 419 kts | 208° |
| 2026-04-24 19:02 | 42.17348 | -74.05885 | 27956 ft | 416 kts | 208° |
| 2026-04-24 19:02 | 42.14603 | -74.07097 | 27573 ft | 413 kts | 208° |
| 2026-04-24 19:03 | 42.11878 | -74.08302 | 27187 ft | 411 kts | 208° |
| 2026-04-24 19:03 | 42.09163 | -74.09499 | 26799 ft | 409 kts | 208° |
| 2026-04-24 19:03 | 42.06457 | -74.10691 | 26435 ft | 408 kts | 208° |
| 2026-04-24 19:03 | 42.03791 | -74.11864 | 26044 ft | 407 kts | 207° |
| 2026-04-24 19:04 | 42.01104 | -74.13041 | 25703 ft | 405 kts | 207° |
| 2026-04-24 19:04 | 41.98427 | -74.14214 | 25310 ft | 404 kts | 207° |
| 2026-04-24 19:04 | 41.95756 | -74.15383 | 24960 ft | 402 kts | 207° |
| 2026-04-24 19:04 | 41.93097 | -74.16547 | 24591 ft | 402 kts | 207° |
| 2026-04-24 19:05 | 41.90441 | -74.17711 | 24191 ft | 401 kts | 207° |
| 2026-04-24 19:05 | 41.87796 | -74.18867 | 23847 ft | 399 kts | 207° |
| 2026-04-24 19:05 | 41.85160 | -74.20019 | 23479 ft | 398 kts | 207° |
| 2026-04-24 19:05 | 41.82523 | -74.21170 | 23057 ft | 397 kts | 207° |
| 2026-04-24 19:06 | 41.79903 | -74.22312 | 22657 ft | 395 kts | 207° |
| 2026-04-24 19:06 | 41.77307 | -74.23440 | 22260 ft | 386 kts | 207° |
| 2026-04-24 19:06 | 41.74791 | -74.24526 | 21921 ft | 375 kts | 207° |
| 2026-04-24 19:06 | 41.72312 | -74.25606 | 21571 ft | 375 kts | 207° |
| 2026-04-24 19:07 | 41.69861 | -74.26677 | 21214 ft | 374 kts | 207° |
| 2026-04-24 19:07 | 41.67385 | -74.27756 | 20846 ft | 373 kts | 207° |
| 2026-04-24 19:07 | 41.64922 | -74.28828 | 20500 ft | 372 kts | 207° |
| 2026-04-24 19:07 | 41.62454 | -74.29900 | 20141 ft | 372 kts | 207° |
| 2026-04-24 19:08 | 41.59995 | -74.30967 | 19772 ft | 372 kts | 207° |
| 2026-04-24 19:08 | 41.57532 | -74.32034 | 19410 ft | 372 kts | 207° |
| 2026-04-24 19:08 | 41.55069 | -74.33099 | 19041 ft | 372 kts | 206° |
| 2026-04-24 19:08 | 41.52603 | -74.34165 | 18664 ft | 372 kts | 206° |
| 2026-04-24 19:09 | 41.50134 | -74.35231 | 18293 ft | 373 kts | 206° |
| 2026-04-24 19:09 | 41.47664 | -74.36296 | 17884 ft | 372 kts | 206° |
| 2026-04-24 19:09 | 41.45216 | -74.37350 | 17563 ft | 368 kts | 206° |
| 2026-04-24 19:09 | 41.42783 | -74.38399 | 17169 ft | 367 kts | 206° |
| 2026-04-24 19:10 | 41.40427 | -74.39408 | 16780 ft | 353 kts | 207° |
| 2026-04-24 19:10 | 41.38100 | -74.40405 | 16428 ft | 345 kts | 207° |
| 2026-04-24 19:10 | 41.35852 | -74.41377 | 16092 ft | 344 kts | 207° |
| 2026-04-24 19:10 | 41.33568 | -74.42364 | 15726 ft | 344 kts | 207° |
| 2026-04-24 19:11 | 41.31289 | -74.43344 | 15384 ft | 344 kts | 206° |
| 2026-04-24 19:11 | 41.29012 | -74.44321 | 15033 ft | 344 kts | 206° |
| 2026-04-24 19:11 | 41.26735 | -74.45298 | 14676 ft | 344 kts | 206° |
| 2026-04-24 19:11 | 41.24452 | -74.46275 | 14329 ft | 345 kts | 206° |
| 2026-04-24 19:12 | 41.22162 | -74.47255 | 13970 ft | 346 kts | 206° |
| 2026-04-24 19:12 | 41.19872 | -74.48233 | 13609 ft | 346 kts | 206° |
| 2026-04-24 19:12 | 41.17575 | -74.49215 | 13215 ft | 347 kts | 206° |
| 2026-04-24 19:12 | 41.15306 | -74.50187 | 12824 ft | 347 kts | 206° |
| 2026-04-24 19:13 | 41.13752 | -74.50849 | 12583 ft | 346 kts | 206° |
| 2026-04-24 19:13 | 41.10729 | -74.52135 | 12108 ft | 343 kts | 206° |
| 2026-04-24 19:13 | 41.08456 | -74.53102 | 11762 ft | 342 kts | 206° |
| 2026-04-24 19:13 | 41.06172 | -74.53987 | 11399 ft | 342 kts | 199° |
| 2026-04-24 19:14 | 41.03790 | -74.54382 | 11076 ft | 346 kts | 191° |
| 2026-04-24 19:14 | 41.01383 | -74.54543 | 10715 ft | 346 kts | 189° |
| 2026-04-24 19:14 | 40.98980 | -74.54672 | 10396 ft | 345 kts | 189° |
| 2026-04-24 19:14 | 40.96616 | -74.54822 | 10110 ft | 331 kts | 190° |
| 2026-04-24 19:15 | 40.94367 | -74.54989 | 9952 ft | 319 kts | 191° |
| 2026-04-24 19:15 | 40.92147 | -74.55181 | 9636 ft | 320 kts | 191° |
| 2026-04-24 19:15 | 40.89925 | -74.55384 | 9327 ft | 320 kts | 191° |
| 2026-04-24 19:15 | 40.87701 | -74.55589 | 9016 ft | 317 kts | 190° |
| 2026-04-24 19:16 | 40.83457 | -74.55970 | 8402 ft | 294 kts | 191° |
| 2026-04-24 19:16 | 40.81446 | -74.56030 | 8156 ft | 294 kts | 184° |
| 2026-04-24 19:16 | 40.79399 | -74.55917 | 7880 ft | 295 kts | 182° |
| 2026-04-24 19:17 | 40.77342 | -74.55773 | 7596 ft | 296 kts | 181° |
| 2026-04-24 19:17 | 40.75282 | -74.55567 | 7320 ft | 297 kts | 178° |
| 2026-04-24 19:17 | 40.73223 | -74.55325 | 7040 ft | 297 kts | 179° |
| 2026-04-24 19:17 | 40.71165 | -74.55161 | 6744 ft | 296 kts | 180° |
| 2026-04-24 19:18 | 40.69097 | -74.55004 | 6479 ft | 297 kts | 180° |
| 2026-04-24 19:18 | 40.67024 | -74.54857 | 6207 ft | 299 kts | 180° |
| 2026-04-24 19:18 | 40.64944 | -74.54721 | 5910 ft | 299 kts | 180° |
| 2026-04-24 19:18 | 40.62907 | -74.54598 | 5644 ft | 285 kts | 180° |
| 2026-04-24 19:19 | 40.60979 | -74.54486 | 5487 ft | 269 kts | 180° |
| 2026-04-24 19:19 | 40.59180 | -74.54381 | 5387 ft | 256 kts | 180° |
| 2026-04-24 19:19 | 40.57409 | -74.54284 | 5398 ft | 255 kts | 180° |
| 2026-04-24 19:19 | 40.55589 | -74.54195 | 5303 ft | 272 kts | 180° |
| 2026-04-24 19:20 | 40.53713 | -74.54112 | 5240 ft | 268 kts | 180° |
| 2026-04-24 19:20 | 40.51843 | -74.54022 | 5228 ft | 269 kts | 177° |
| 2026-04-24 19:20 | 40.50017 | -74.53332 | 5220 ft | 281 kts | 151° |
| 2026-04-24 19:20 | 40.48382 | -74.51871 | 5033 ft | 285 kts | 144° |
| 2026-04-24 19:21 | 40.46834 | -74.50381 | 4977 ft | 266 kts | 144° |
| 2026-04-24 19:21 | 40.45401 | -74.48945 | 4862 ft | 255 kts | 136° |
| 2026-04-24 19:21 | 40.44459 | -74.47033 | 4834 ft | 250 kts | 104° |
| 2026-04-24 19:21 | 40.44355 | -74.44791 | 4835 ft | 246 kts | 76° |
| 2026-04-24 19:22 | 40.44716 | -74.43386 | 4645 ft | 244 kts | 59° |
| 2026-04-24 19:22 | 40.45871 | -74.40816 | 4321 ft | 246 kts | 58° |
| 2026-04-24 19:22 | 40.46718 | -74.38868 | 4060 ft | 245 kts | 58° |
| 2026-04-24 19:22 | 40.47552 | -74.36947 | 3807 ft | 245 kts | 58° |
| 2026-04-24 19:23 | 40.48395 | -74.35008 | 3558 ft | 244 kts | 58° |
| 2026-04-24 19:23 | 40.49237 | -74.33063 | 3418 ft | 238 kts | 59° |
| 2026-04-24 19:23 | 40.50036 | -74.31216 | 3288 ft | 232 kts | 59° |
| 2026-04-24 19:23 | 40.50822 | -74.29400 | 3193 ft | 225 kts | 59° |
| 2026-04-24 19:24 | 40.51660 | -74.27738 | 3069 ft | 210 kts | 39° |
| 2026-04-24 19:24 | 40.52882 | -74.26843 | 2987 ft | 198 kts | 21° |
| 2026-04-24 19:24 | 40.54133 | -74.26085 | 2881 ft | 200 kts | 24° |
| 2026-04-24 19:24 | 40.55390 | -74.25281 | 2641 ft | 200 kts | 24° |
| 2026-04-24 19:25 | 40.56640 | -74.24489 | 2442 ft | 196 kts | 24° |
| 2026-04-24 19:25 | 40.57844 | -74.23726 | 2218 ft | 187 kts | 24° |
| 2026-04-24 19:25 | 40.58967 | -74.23010 | 1967 ft | 172 kts | 25° |
| 2026-04-24 19:25 | 40.60010 | -74.22348 | 1748 ft | 162 kts | 25° |
| 2026-04-24 19:26 | 40.61026 | -74.21702 | 1552 ft | 163 kts | 25° |
| 2026-04-24 19:26 | 40.62042 | -74.21058 | 1323 ft | 161 kts | 25° |
| 2026-04-24 19:26 | 40.63045 | -74.20421 | 1130 ft | 159 kts | 25° |
| 2026-04-24 19:26 | 40.64046 | -74.19785 | 914 ft | 161 kts | 26° |
| 2026-04-24 19:27 | 40.65069 | -74.19134 | 700 ft | 164 kts | 27° |
| 2026-04-24 19:27 | 40.66069 | -74.18499 | 470 ft | 153 kts | 27° |
| 2026-04-24 19:27 | 40.66975 | -74.17927 | 283 ft | 141 kts | 30° |
| 2026-04-24 19:27 | 40.67834 | -74.17377 | 69 ft | 135 kts | 29° |
| 2026-04-24 19:28 | 40.68651 | -74.16861 | 28 ft | 119 kts | 26° |
| 2026-04-24 19:28 | 40.69255 | -74.16477 | 28 ft | 74 kts | 26° |
| 2026-04-24 19:28 | 40.69518 | -74.16314 | 26 ft | 28 kts | 20° |
| 2026-04-24 19:28 | 40.69637 | -74.16296 | 27 ft | 8 kts | 358° |
| 2026-04-24 19:29 | 40.69705 | -74.16307 | 23 ft | 0 kts | 341° |
| 2026-04-24 19:29 | 40.69720 | -74.16318 | 27 ft | 13 kts | 324° |
| 2026-04-24 19:29 | 40.69733 | -74.16390 | 23 ft | 0 kts | 269° |
| 2026-04-24 19:30 | 40.69733 | -74.16402 | 23 ft | 10 kts | 270° |
| 2026-04-24 19:30 | 40.69770 | -74.16536 | 25 ft | 17 kts | 295° |
| 2026-04-24 19:30 | 40.69801 | -74.16688 | 20 ft | 17 kts | 257° |
| 2026-04-24 19:30 | 40.69747 | -74.16816 | 28 ft | 16 kts | 219° |
| 2026-04-24 19:31 | 40.69651 | -74.16882 | 27 ft | 16 kts | 206° |
| 2026-04-24 19:31 | 40.69554 | -74.16944 | 25 ft | 16 kts | 205° |
| 2026-04-24 19:31 | 40.69456 | -74.17005 | 28 ft | 16 kts | 205° |
| 2026-04-24 19:31 | 40.69357 | -74.17065 | 24 ft | 16 kts | 206° |
| 2026-04-24 19:32 | 40.69278 | -74.17118 | 25 ft | 8 kts | 206° |
| 2026-04-24 19:32 | 40.69260 | -74.17188 | 25 ft | 10 kts | 286° |
| 2026-04-24 19:32 | 40.69266 | -74.17278 | 24 ft | 6 kts | 244° |
| 2026-04-24 19:32 | 40.69250 | -74.17336 | 23 ft | 6 kts | 255° |
| 2026-04-24 19:33 | 40.69247 | -74.17354 | 21 ft | 0 kts | 256° |